Terminal Aerodrome Forecast
Issued by NWS

Home | Current Version | Previous Version | Text Only | Print | Product List | Glossary On
Versions: 1 2 3 4 5 6 7 8 9 10 11 12 13 14 15 16 17 18 19 20 21
000
FTUS43 KABR 250600 AAA
TAFATY
TAF AMD
KATY 250659Z 2507/2606 VRB06KT 3SM BR SCT250
      TEMPO 2507/2508 1SM BR
     FM251000 29006KT P6SM SCT250
     FM260200 07006KT P6SM BKN250=

USA.gov is the U.S. government's official web portal to all federal, state and local government web resources and services.